Stations météo

réclame
Mon MeteoGroup
East malling, Grande-Bretagne (99008): Température de l'air & dewpoint: 12.01.2020 04:00:00 - 18.01.2020 04:00:00 (GMT)East malling, Grande-Bretagne (99008): Température de l'air -20cm: 12.01.2020 04:00:00 - 18.01.2020 04:00:00 (GMT)East malling, Grande-Bretagne (99008): Vitesse du vent & gusts: 12.01.2020 04:00:00 - 18.01.2020 04:00:00 (GMT)East malling, Grande-Bretagne (99008): Direction du vent: 12.01.2020 04:00:00 - 18.01.2020 04:00:00 (GMT)East malling, Grande-Bretagne (99008): reduced air pressure: 12.01.2020 04:00:00 - 18.01.2020 04:00:00 (GMT)East malling, Grande-Bretagne (99008): Ensoleillement: 12.01.2020 04:00:00 - 18.01.2020 04:00:00 (GMT)East malling, Grande-Bretagne (99008): Quantités de précipitations: 12.01.2020 04:00:00 - 18.01.2020 04:00:00 (GMT)
Date & Time tt [°C] td [°C] tt -20cm [°C] ff [km/h] ff [knt] fx [km/h] fx [knt] dd ppp [hPa] sd [min] rr [mm]
18.01.2020 04:00:00 3,0 1,4 - 11 6 - - WNW 1023,1 0 0,0
18.01.2020 03:00:00 3,6 1,6 - 13 7 - - W 1022,6 0 0,0
18.01.2020 02:00:00 3,4 1,4 - 13 7 - - W 1021,7 0 0,0
18.01.2020 01:00:00 3,4 1,5 - 15 8 - - W 1021,1 0 0,0
18.01.2020 00:00:00 1,8 0,9 - 4 2 - - WSW 1020,4 - 0,0
17.01.2020 23:00:00 2,2 1,7 - 5 3 - - WSW 1019,8 0 0,0
17.01.2020 22:00:00 1,5 0,6 - 5 3 - - WSW 1019,2 0 0,0
17.01.2020 21:00:00 2,7 1,2 - 2 1 - - WSW 1018,8 0 0,0
17.01.2020 20:00:00 3,5 1,8 - 9 5 - - SSW 1018,4 0 0,0
17.01.2020 19:00:00 3,6 1,2 - 5 3 - - S 1018,1 0 0,0
17.01.2020 18:00:00 5,2 1,7 - 13 7 - - SW 1017,7 0 0,0
17.01.2020 17:00:00 5,8 1,1 - 9 5 - - SW 1016,9 18 0,0
17.01.2020 16:00:00 7,3 1,4 - 16 9 - - W 1015,9 18 0,0
17.01.2020 15:00:00 7,5 1,4 - 22 12 46 25 W 1014,9 12 0,0
17.01.2020 14:00:00 7,7 1,8 - 28 15 54 29 W 1013,2 6 0,0
17.01.2020 13:00:00 8,4 2,5 - 31 17 65 35 W 1012,1 24 0,0
17.01.2020 12:00:00 9,3 4,5 - 29 16 48 26 WSW 1010,9 24 0,0
17.01.2020 11:00:00 9,8 6,0 - 24 13 - - SW 1010,7 24 0,0
17.01.2020 10:00:00 9,5 7,2 - 21 11 - - SSW 1010,2 24 0,0
17.01.2020 09:00:00 8,0 7,8 8,0 13 7 - - SSW 1010,2 6 0,0
17.01.2020 08:00:00 7,9 7,1 - 13 7 - - SW 1010,1 0 0,8
17.01.2020 07:00:00 8,9 8,0 - 26 14 46 25 WSW 1009,8 0 1,2
17.01.2020 06:00:00 9,7 9,6 - 18 10 - - SSW 1009,5 0 0,2
17.01.2020 05:00:00 9,9 9,9 - 13 7 - - SSW 1009,4 0 0,8
17.01.2020 04:00:00 9,9 9,9 - 15 8 - - SSW 1009,6 0 0,2
17.01.2020 03:00:00 9,9 9,9 - 13 7 - - SSW 1010,0 0 0,4
17.01.2020 02:00:00 9,8 9,8 - 15 8 - - SSW 1010,6 0 0,6
17.01.2020 01:00:00 10,0 10,0 - 13 7 - - S 1010,6 0 1,8
17.01.2020 00:00:00 10,2 9,9 - 16 9 - - SSW 1011,2 - 2,0
16.01.2020 23:00:00 10,5 9,5 - 18 10 - - SSW 1011,1 0 0,6
16.01.2020 22:00:00 10,7 9,4 - 21 11 - - SSW 1011,2 0 1,0
16.01.2020 21:00:00 11,3 8,3 - 21 11 - - SSW 1011,4 0 0,2
16.01.2020 20:00:00 12,3 7,3 - 28 15 46 25 SSW 1011,2 0 0,0
16.01.2020 19:00:00 12,1 7,4 - 21 11 - - S 1011,7 0 0,0
16.01.2020 18:00:00 11,8 7,4 - 21 11 - - S 1012,1 0 0,0
16.01.2020 17:00:00 11,9 7,2 - 22 12 - - S 1012,4 0 0,0
16.01.2020 16:00:00 11,5 7,0 - 26 14 48 26 S 1012,5 0 0,0
16.01.2020 15:00:00 11,2 7,2 - 22 12 - - S 1012,8 0 0,0
16.01.2020 14:00:00 10,4 7,3 - 16 9 - - S 1013,9 6 0,0
16.01.2020 13:00:00 9,8 7,1 - 26 14 - - S 1015,0 18 0,0
16.01.2020 12:00:00 9,0 6,9 - 22 12 - - S 1016,3 30 0,0
16.01.2020 11:00:00 8,6 6,3 - 16 9 48 26 S 1017,8 6 0,0
16.01.2020 10:00:00 8,6 7,4 - 16 9 - - S 1018,4 0 0,0
16.01.2020 09:00:00 7,6 6,8 7,2 15 8 - - S 1018,6 54 0,0
16.01.2020 08:00:00 7,0 6,5 - 15 8 - - S 1019,1 0 0,0
16.01.2020 07:00:00 6,8 6,7 - 13 7 - - SSE 1019,3 0 0,0
16.01.2020 06:00:00 6,6 6,3 - 9 5 - - S 1020,0 0 0,0
16.01.2020 05:00:00 6,7 6,7 - 13 7 - - S 1020,4 0 0,0
16.01.2020 04:00:00 6,0 5,5 - 9 5 - - S 1020,6 0 0,0
16.01.2020 03:00:00 5,8 5,0 - 11 6 - - S 1020,8 0 0,0
16.01.2020 02:00:00 6,2 5,1 - 11 6 - - SSE 1020,7 0 0,0
16.01.2020 01:00:00 6,2 5,6 - 9 5 - - S 1020,2 0 0,0
16.01.2020 00:00:00 6,2 4,8 - 11 6 - - S 1019,7 - 0,0
15.01.2020 23:00:00 6,2 4,5 - 13 7 - - S 1019,5 0 0,0
15.01.2020 22:00:00 5,7 3,8 - 11 6 - - SSW 1019,0 0 0,0
15.01.2020 21:00:00 5,9 3,4 - 11 6 - - SSW 1018,4 0 0,0
15.01.2020 20:00:00 6,1 3,5 - 11 6 - - SSW 1017,4 0 0,0
15.01.2020 19:00:00 6,7 4,1 - 15 8 - - SSW 1016,2 0 0,0
15.01.2020 18:00:00 6,8 5,1 - 9 5 - - SW 1015,1 0 0,0
15.01.2020 17:00:00 7,5 5,6 - 13 7 - - SW 1013,5 24 0,0
15.01.2020 16:00:00 8,2 5,7 - 15 8 - - SW 1012,1 24 0,2
15.01.2020 15:00:00 8,3 5,9 - 18 10 - - SW 1010,7 6 0,0
15.01.2020 14:00:00 8,5 5,4 - 15 8 - - SW 1009,4 48 0,0
15.01.2020 13:00:00 7,5 6,0 - 16 9 - - SSW 1008,4 6 0,0
15.01.2020 12:00:00 6,8 6,2 - 9 5 - - SSW 1007,4 0 0,4
15.01.2020 11:00:00 6,6 5,3 - 9 5 - - WSW 1006,6 0 0,6
15.01.2020 10:00:00 6,8 6,4 - 9 5 - - WNW 1005,6 0 1,2
15.01.2020 09:00:00 7,1 6,7 8,9 13 7 - - WNW 1003,9 0 1,6
15.01.2020 08:00:00 8,2 8,2 - 9 5 - - WNW 1002,7 0 1,6
15.01.2020 07:00:00 10,6 9,7 - 22 12 - - SSW 1001,2 0 0,2
15.01.2020 06:00:00 10,5 9,8 - 21 11 - - SSW 1000,9 0 0,4
15.01.2020 05:00:00 10,7 9,9 - 24 13 52 28 SW 1000,4 0 1,0
15.01.2020 04:00:00 11,2 9,6 - 35 19 61 33 SW 1000,1 0 0,8
15.01.2020 03:00:00 11,2 9,7 - 29 16 68 37 SSW 999,7 0 0,0
15.01.2020 02:00:00 12,2 9,0 - 39 21 63 34 SSW 999,3 0 0,2
15.01.2020 01:00:00 11,4 10,2 - 35 19 67 36 SSW 999,1 0 1,0
15.01.2020 00:00:00 11,4 10,6 - 42 23 72 39 SW 999,3 - 1,6
14.01.2020 23:00:00 11,6 10,6 - 41 22 81 44 SW 999,0 0 0,4
14.01.2020 22:00:00 12,0 10,6 - 44 24 81 44 SW 998,5 0 0,4
14.01.2020 21:00:00 12,0 10,8 - 44 24 78 42 SW 998,0 0 0,4
14.01.2020 20:00:00 12,8 10,6 - 48 26 91 49 SW 997,5 0 0,2
14.01.2020 19:00:00 12,1 11,6 - 42 23 78 42 SW 997,1 0 0,6
14.01.2020 18:00:00 12,3 12,0 - 37 20 68 37 SW 996,4 0 0,4
14.01.2020 17:00:00 12,6 12,2 - 41 22 81 44 SSW 996,1 0 0,4
14.01.2020 16:00:00 12,7 12,4 - 41 22 72 39 SW 995,6 0 0,6
14.01.2020 15:00:00 12,6 12,4 - 39 21 65 35 SSW 995,2 0 0,8
14.01.2020 14:00:00 12,5 12,3 - 39 21 63 34 SW 995,2 0 0,6
14.01.2020 13:00:00 11,1 11,1 - 24 13 - - S 996,1 0 0,2
14.01.2020 12:00:00 10,2 8,3 - 24 13 52 28 SSW 997,8 0 0,2
14.01.2020 11:00:00 9,7 8,1 - 24 13 - - SSW 999,2 0 0,2
14.01.2020 10:00:00 9,9 7,7 - 21 11 - - SSW 999,8 0 0,0
14.01.2020 09:00:00 8,8 7,2 7,7 15 8 - - S 999,9 0 0,0
14.01.2020 08:00:00 7,9 7,0 - 11 6 - - SSW 999,9 0 0,0
14.01.2020 07:00:00 8,2 6,6 - 22 12 - - SW 1000,2 0 0,6
14.01.2020 06:00:00 8,4 6,6 - 15 8 - - SW 1000,0 0 0,0
14.01.2020 05:00:00 8,1 6,9 - 13 7 - - SSW 999,3 0 0,0
14.01.2020 04:00:00 8,3 7,1 - 15 8 - - SSW 998,8 0 0,0
14.01.2020 03:00:00 7,9 7,1 - 15 8 - - SSW 998,3 0 0,0
14.01.2020 02:00:00 7,6 6,5 - 13 7 - - SSW 998,2 0 0,2
14.01.2020 01:00:00 8,2 6,7 - 16 9 48 26 SW 998,1 0 0,6
14.01.2020 00:00:00 9,5 8,7 - 28 15 68 37 WSW 998,0 - 0,8
13.01.2020 23:00:00 11,1 9,7 - 37 20 70 38 SW 996,9 0 0,8
13.01.2020 22:00:00 11,0 9,6 - 39 21 72 39 SSW 997,0 0 1,4
13.01.2020 21:00:00 10,7 9,3 - 37 20 65 35 SSW 997,6 0 1,2
13.01.2020 20:00:00 10,6 9,2 - 34 18 72 39 SSW 998,8 0 0,8
13.01.2020 19:00:00 10,9 8,5 - 37 20 63 34 SSW 1000,0 0 0,2
13.01.2020 18:00:00 11,0 7,5 - 31 17 59 32 SSW 1000,8 0 0,0
13.01.2020 17:00:00 10,4 7,0 - 28 15 54 29 SSW 1002,2 0 0,0
13.01.2020 16:00:00 8,8 7,9 - 26 14 50 27 S 1003,2 0 0,0
13.01.2020 15:00:00 9,4 6,0 - 26 14 48 26 SSW 1004,9 0 0,0
13.01.2020 14:00:00 9,3 6,1 - 22 12 - - SSW 1007,0 0 0,0
13.01.2020 13:00:00 9,0 5,5 - 24 13 - - SSW 1009,0 0 0,0
13.01.2020 12:00:00 9,1 5,3 - 21 11 - - SSW 1010,6 24 0,0
13.01.2020 11:00:00 8,7 6,6 - 18 10 - - SSW 1012,2 36 0,0
13.01.2020 10:00:00 8,3 7,5 - 16 9 - - S 1013,5 54 0,0
13.01.2020 09:00:00 6,6 6,6 6,9 11 6 - - S 1014,8 30 0,0
13.01.2020 08:00:00 6,5 6,5 - 11 6 - - S 1015,5 0 0,4
13.01.2020 07:00:00 6,7 6,7 - 9 5 - - SSW 1016,0 0 0,4
13.01.2020 06:00:00 6,4 6,4 - 11 6 - - S 1016,5 0 0,4
13.01.2020 05:00:00 5,4 5,4 - 9 5 - - SSW 1017,2 0 0,0
13.01.2020 04:00:00 5,5 5,5 - 11 6 - - S 1017,8 0 0,0
13.01.2020 03:00:00 4,0 4,0 - 5 3 - - SSW 1019,0 0 0,0
13.01.2020 02:00:00 2,6 2,6 - 4 2 - - SSE 1019,8 0 0,0
13.01.2020 01:00:00 5,1 5,1 - 11 6 - - S 1020,5 0 0,0
13.01.2020 00:00:00 5,1 5,1 - 9 5 - - S 1021,1 - 0,0
12.01.2020 23:00:00 5,3 5,2 - 11 6 - - SSW 1021,3 0 0,0
12.01.2020 22:00:00 5,3 4,3 - 8 4 - - S 1021,5 0 0,0
12.01.2020 21:00:00 5,4 4,0 - 13 7 - - SSW 1021,6 0 0,0
12.01.2020 20:00:00 6,1 4,7 - 11 6 - - SSW 1021,6 0 0,0
12.01.2020 19:00:00 6,9 4,5 - 9 5 - - SW 1021,5 0 0,0
12.01.2020 18:00:00 8,8 4,5 - 13 7 - - WSW 1021,3 0 0,0
12.01.2020 17:00:00 8,5 3,6 - 8 4 - - SW 1020,8 18 0,0
12.01.2020 16:00:00 10,2 3,7 - 16 9 - - W 1019,8 48 0,0
12.01.2020 15:00:00 11,4 4,9 - 22 12 - - W 1019,3 48 0,0
12.01.2020 14:00:00 11,0 4,8 - 22 12 46 25 W 1018,5 24 0,0
12.01.2020 13:00:00 11,0 6,0 - 24 13 52 28 WSW 1018,1 0 0,0
12.01.2020 12:00:00 11,2 6,8 - 24 13 46 25 WSW 1018,1 18 0,0
12.01.2020 11:00:00 11,6 7,7 - 24 13 48 26 WSW 1017,8 42 0,0
12.01.2020 10:00:00 11,2 8,0 - 26 14 46 25 WSW 1017,1 24 0,0
12.01.2020 09:00:00 10,7 9,8 7,7 28 15 - - WSW 1016,3 6 0,0
12.01.2020 08:00:00 10,1 10,0 - 26 14 - - SW 1016,0 0 0,0
12.01.2020 07:00:00 9,9 9,5 - 26 14 - - SW 1016,5 0 0,0
12.01.2020 06:00:00 9,2 9,0 - 22 12 - - SW 1016,9 0 0,8
12.01.2020 05:00:00 9,0 8,2 - 21 11 - - SW 1017,5 0 0,4
12.01.2020 04:00:00 9,4 7,5 - 22 12 - - SW 1018,2 0 0,0

tt = Température de l'air
td = dewpoint
tt -20cm = Température de l'air -20cm
ff = Vitesse du vent
fx = gusts
dd = Direction du vent
ppp = reduced air pressure
sd = Ensoleillement
rr = Quantités de précipitations

stations d'obs. à proximité